createdAt,value
2022-08-30T00:00:10.882Z,958.47
2022-08-30T00:01:13.649Z,958.48
2022-08-30T00:02:10.962Z,958.45
2022-08-30T00:03:11.083Z,958.43
2022-08-30T00:04:10.841Z,958.43
2022-08-30T00:05:10.830Z,958.43
2022-08-30T00:06:10.818Z,958.38
2022-08-30T00:07:10.809Z,958.4
2022-08-30T00:08:10.796Z,958.41
2022-08-30T00:09:10.786Z,958.42
2022-08-30T00:10:10.775Z,958.41
2022-08-30T00:11:10.766Z,958.42
2022-08-30T00:12:10.754Z,958.45
2022-08-30T00:13:10.744Z,958.44
2022-08-30T00:14:10.732Z,958.45
2022-08-30T00:15:10.723Z,958.41
2022-08-30T00:16:10.788Z,958.41
2022-08-30T00:17:10.700Z,958.4
2022-08-30T00:18:10.688Z,958.41
2022-08-30T00:19:10.679Z,958.46
2022-08-30T00:20:10.666Z,958.46
2022-08-30T00:21:10.657Z,958.48
2022-08-30T00:22:10.645Z,958.49
2022-08-30T00:23:10.640Z,958.48
2022-08-30T00:24:10.623Z,958.5
2022-08-30T00:25:10.613Z,958.46
2022-08-30T00:26:10.604Z,958.49
2022-08-30T00:27:10.591Z,958.5
2022-08-30T00:28:10.581Z,958.5
2022-08-30T00:29:10.569Z,958.48
2022-08-30T00:30:10.561Z,958.49
2022-08-30T00:31:10.614Z,958.44
2022-08-30T00:32:10.538Z,958.48
2022-08-30T00:33:10.524Z,958.48
2022-08-30T00:34:10.518Z,958.46
2022-08-30T00:35:10.505Z,958.46
2022-08-30T00:36:10.495Z,958.45
2022-08-30T00:37:10.481Z,958.39
2022-08-30T00:38:10.471Z,958.39
2022-08-30T00:39:10.458Z,958.41
2022-08-30T00:40:10.494Z,958.37
2022-08-30T00:41:10.438Z,958.37
2022-08-30T00:42:10.433Z,958.33
2022-08-30T00:43:10.415Z,958.34
2022-08-30T00:44:10.406Z,958.37
2022-08-30T00:45:10.393Z,958.33
2022-08-30T00:46:10.578Z,958.31
2022-08-30T00:47:10.371Z,958.32
2022-08-30T00:48:10.362Z,958.3
2022-08-30T00:49:10.347Z,958.24
2022-08-30T00:50:10.340Z,958.24
2022-08-30T00:51:10.327Z,958.27
2022-08-30T00:52:10.317Z,958.25
2022-08-30T00:53:10.305Z,958.24
2022-08-30T00:54:10.295Z,958.24
2022-08-30T00:55:10.283Z,958.21
2022-08-30T00:56:10.273Z,958.22
2022-08-30T00:57:10.261Z,958.22
2022-08-30T00:58:10.250Z,958.23
2022-08-30T00:59:10.237Z,958.28
2022-08-30T01:00:10.228Z,958.17
2022-08-30T01:01:10.319Z,958.21
2022-08-30T01:02:10.303Z,958.2
2022-08-30T01:03:10.224Z,958.17
2022-08-30T01:04:10.184Z,958.2
2022-08-30T01:05:10.171Z,958.2
2022-08-30T01:06:10.162Z,958.17
2022-08-30T01:07:10.148Z,958.2
2022-08-30T01:08:10.138Z,958.15
2022-08-30T01:09:10.126Z,958.16
2022-08-30T01:10:10.117Z,958.14
2022-08-30T01:11:10.103Z,958.14
2022-08-30T01:12:10.094Z,958.16
2022-08-30T01:13:10.081Z,958.16
2022-08-30T01:14:10.073Z,958.17
2022-08-30T01:15:10.058Z,958.17
2022-08-30T01:16:10.159Z,958.25
2022-08-30T01:17:10.038Z,958.25
2022-08-30T01:18:10.026Z,958.27
2022-08-30T01:19:10.016Z,958.23
2022-08-30T01:20:10.005Z,958.24
2022-08-30T01:21:09.996Z,958.26
2022-08-30T01:22:09.980Z,958.26
2022-08-30T01:23:09.971Z,958.29
2022-08-30T01:24:09.958Z,958.29
2022-08-30T01:25:09.950Z,958.32
2022-08-30T01:26:09.936Z,958.32
2022-08-30T01:27:09.928Z,958.31
2022-08-30T01:28:09.913Z,958.3
2022-08-30T01:29:09.903Z,958.29
2022-08-30T01:30:09.892Z,958.28
2022-08-30T01:31:09.913Z,958.31
2022-08-30T01:32:09.868Z,958.31
2022-08-30T01:33:09.955Z,958.31
2022-08-30T01:34:09.848Z,958.27
2022-08-30T01:35:09.835Z,958.28
2022-08-30T01:36:09.825Z,958.27
2022-08-30T01:37:09.813Z,958.29
2022-08-30T01:38:09.801Z,958.29
2022-08-30T01:39:09.791Z,958.25
2022-08-30T01:40:09.817Z,958.29
2022-08-30T01:41:09.768Z,958.29
2022-08-30T01:42:09.755Z,958.3
2022-08-30T01:43:09.777Z,958.25
2022-08-30T01:44:09.731Z,958.28
2022-08-30T01:45:09.722Z,958.26
2022-08-30T01:46:09.762Z,958.3
2022-08-30T01:47:09.702Z,958.29
2022-08-30T01:48:09.686Z,958.31
2022-08-30T01:49:09.676Z,958.3
2022-08-30T01:50:09.663Z,958.3
2022-08-30T01:51:09.655Z,958.29
2022-08-30T01:52:09.641Z,958.29
2022-08-30T01:53:13.074Z,958.3
2022-08-30T01:54:09.618Z,958.29
2022-08-30T01:55:09.607Z,958.29
2022-08-30T01:56:09.594Z,958.31
2022-08-30T01:57:09.584Z,958.31
2022-08-30T01:58:09.572Z,958.29
2022-08-30T01:59:09.564Z,958.28
2022-08-30T02:00:09.550Z,958.3
2022-08-30T02:01:09.588Z,958.31
2022-08-30T02:02:09.525Z,958.3
2022-08-30T02:03:09.516Z,958.3
2022-08-30T02:04:09.573Z,958.28
2022-08-30T02:05:09.493Z,958.28
2022-08-30T02:06:09.479Z,958.26
2022-08-30T02:07:09.471Z,958.25
2022-08-30T02:08:09.458Z,958.19
2022-08-30T02:09:09.446Z,958.23
2022-08-30T02:10:09.435Z,958.19
2022-08-30T02:11:09.422Z,958.18
2022-08-30T02:12:09.413Z,958.2
2022-08-30T02:13:09.432Z,958.15
2022-08-30T02:14:09.390Z,958.21
2022-08-30T02:15:09.375Z,958.16
2022-08-30T02:16:09.365Z,958.17
2022-08-30T02:17:09.352Z,958.18
2022-08-30T02:18:09.342Z,958.18
2022-08-30T02:19:09.330Z,958.17
2022-08-30T02:20:09.320Z,958.15
2022-08-30T02:21:09.306Z,958.11
2022-08-30T02:22:09.301Z,958.16
2022-08-30T02:23:09.289Z,958.15
2022-08-30T02:24:09.272Z,958.12
2022-08-30T02:25:09.797Z,958.11
2022-08-30T02:26:09.249Z,958.13
2022-08-30T02:27:09.237Z,958.13
2022-08-30T02:28:09.226Z,958.13
2022-08-30T02:29:09.217Z,958.12
2022-08-30T02:30:09.206Z,958.14
2022-08-30T02:31:09.256Z,958.12
2022-08-30T02:32:09.179Z,958.12
2022-08-30T02:33:09.205Z,958.17
2022-08-30T02:34:09.158Z,958.17
2022-08-30T02:35:09.142Z,958.17
2022-08-30T02:36:09.137Z,958.15
2022-08-30T02:37:09.119Z,958.19
2022-08-30T02:38:09.110Z,958.13
2022-08-30T02:39:09.096Z,958.12
2022-08-30T02:40:09.129Z,958.15
2022-08-30T02:41:09.073Z,958.11
2022-08-30T02:42:09.063Z,958.09
2022-08-30T02:43:09.064Z,958.05
2022-08-30T02:44:09.040Z,958.06
2022-08-30T02:45:09.026Z,958.06
2022-08-30T02:46:09.065Z,958.03
2022-08-30T02:47:09.003Z,958.08
2022-08-30T02:48:08.993Z,958.05
2022-08-30T02:49:30.204Z,958.06
2022-08-30T02:50:08.969Z,958.06
2022-08-30T02:51:09.392Z,958.02
2022-08-30T02:52:08.948Z,958.02
2022-08-30T02:53:08.958Z,958.06
2022-08-30T02:54:08.923Z,958.05
2022-08-30T02:55:08.910Z,958.04
2022-08-30T02:56:08.909Z,958.04
2022-08-30T02:57:08.892Z,957.97
2022-08-30T02:58:08.877Z,958.03
2022-08-30T02:59:08.865Z,957.99
2022-08-30T03:00:08.851Z,958.03
2022-08-30T03:01:08.929Z,958.02
2022-08-30T03:02:08.832Z,958.04
2022-08-30T03:03:08.867Z,958.06
2022-08-30T03:04:08.803Z,958.03
2022-08-30T03:05:08.793Z,958.05
2022-08-30T03:06:08.781Z,958.08
2022-08-30T03:07:08.773Z,958.06
2022-08-30T03:08:08.756Z,958.05
2022-08-30T03:09:08.748Z,958.05
2022-08-30T03:10:08.734Z,958.08
2022-08-30T03:11:08.723Z,958.05
2022-08-30T03:12:08.713Z,958
2022-08-30T03:13:08.758Z,958.02
2022-08-30T03:14:08.686Z,958.06
2022-08-30T03:15:08.675Z,958.03
2022-08-30T03:16:08.697Z,958.04
2022-08-30T03:17:11.279Z,958
2022-08-30T03:18:08.640Z,958.03
2022-08-30T03:19:08.629Z,957.98
2022-08-30T03:20:08.617Z,958.01
2022-08-30T03:21:08.606Z,958.03
2022-08-30T03:22:08.594Z,958
2022-08-30T03:23:08.583Z,957.98
2022-08-30T03:24:08.568Z,958
2022-08-30T03:25:08.558Z,957.98
2022-08-30T03:26:08.547Z,957.98
2022-08-30T03:27:08.538Z,957.96
2022-08-30T03:28:08.522Z,957.96
2022-08-30T03:29:08.512Z,957.99
2022-08-30T03:30:08.497Z,958.02
2022-08-30T03:31:08.487Z,958.01
2022-08-30T03:32:08.516Z,958
2022-08-30T03:49:33.374Z,958.05
2022-08-30T03:50:33.356Z,958.05
2022-08-30T03:51:33.342Z,957.99
2022-08-30T03:52:33.325Z,957.98
2022-08-30T03:53:33.311Z,957.98
2022-08-30T03:54:33.297Z,958.02
2022-08-30T03:55:33.284Z,958.01
2022-08-30T03:56:33.268Z,958.02
2022-08-30T03:57:33.260Z,958.07
2022-08-30T03:58:33.242Z,958.06
2022-08-30T03:59:33.228Z,958.01
2022-08-30T04:00:33.215Z,958.02
2022-08-30T04:01:33.258Z,958.04
2022-08-30T04:02:33.224Z,958.05
2022-08-30T04:03:33.178Z,958.08
2022-08-30T04:04:33.163Z,958.1
2022-08-30T04:05:33.152Z,958.1
2022-08-30T04:06:33.138Z,958.12
2022-08-30T04:07:33.126Z,958.13
2022-08-30T04:08:33.112Z,958.16
2022-08-30T04:09:33.101Z,958.17
2022-08-30T04:10:33.085Z,958.2
2022-08-30T04:11:33.076Z,958.18
2022-08-30T04:12:33.062Z,958.15
2022-08-30T04:13:33.050Z,958.17
2022-08-30T04:14:33.035Z,958.19
2022-08-30T04:15:33.026Z,958.16
2022-08-30T04:16:33.063Z,958.15
2022-08-30T04:17:33.001Z,958.18
2022-08-30T04:18:32.988Z,958.19
2022-08-30T04:19:32.977Z,958.21
2022-08-30T04:20:32.964Z,958.17
2022-08-30T04:21:32.950Z,958.18
2022-08-30T04:22:32.937Z,958.18
2022-08-30T04:23:32.927Z,958.16
2022-08-30T04:24:32.913Z,958.2
2022-08-30T04:25:32.903Z,958.22
2022-08-30T04:26:32.888Z,958.24
2022-08-30T04:27:32.878Z,958.22
2022-08-30T04:28:32.865Z,958.18
2022-08-30T04:29:32.854Z,958.22
2022-08-30T04:30:32.842Z,958.23
2022-08-30T04:31:32.869Z,958.25
2022-08-30T04:32:32.816Z,958.2
2022-08-30T04:33:32.805Z,958.21
2022-08-30T04:34:32.793Z,958.26
2022-08-30T04:35:32.781Z,958.24
2022-08-30T04:36:32.767Z,958.28
2022-08-30T04:37:32.756Z,958.29
2022-08-30T04:38:32.744Z,958.31
2022-08-30T04:39:32.733Z,958.34
2022-08-30T04:40:32.799Z,958.34
2022-08-30T04:41:32.706Z,958.35
2022-08-30T04:42:32.698Z,958.35
2022-08-30T04:43:32.682Z,958.36
2022-08-30T04:44:32.673Z,958.36
2022-08-30T04:45:32.706Z,958.34
2022-08-30T04:46:32.649Z,958.36
2022-08-30T04:47:32.635Z,958.36
2022-08-30T04:48:32.625Z,958.4
2022-08-30T04:49:32.611Z,958.36
2022-08-30T04:50:32.601Z,958.36
2022-08-30T04:51:32.588Z,958.38
2022-08-30T04:52:32.576Z,958.39
2022-08-30T04:53:32.564Z,958.43
2022-08-30T04:54:32.553Z,958.42
2022-08-30T04:55:32.540Z,958.48
2022-08-30T04:56:32.529Z,958.51
2022-08-30T04:57:32.517Z,958.55
2022-08-30T04:58:32.506Z,958.53
2022-08-30T04:59:32.493Z,958.55
2022-08-30T05:00:32.566Z,958.53
2022-08-30T05:01:32.471Z,958.58
2022-08-30T05:02:32.529Z,958.54
2022-08-30T05:03:32.446Z,958.54
2022-08-30T05:04:32.436Z,958.56
2022-08-30T05:05:32.422Z,958.58
2022-08-30T05:06:32.412Z,958.63
2022-08-30T05:07:32.399Z,958.61
2022-08-30T05:08:32.390Z,958.61
2022-08-30T05:09:32.527Z,958.6
2022-08-30T05:10:32.365Z,958.66
2022-08-30T05:11:32.352Z,958.65
2022-08-30T05:12:32.342Z,958.64
2022-08-30T05:13:35.462Z,958.68
2022-08-30T05:14:32.322Z,958.68
2022-08-30T05:15:32.306Z,958.73
2022-08-30T05:16:32.374Z,958.68
2022-08-30T05:17:32.282Z,958.66
2022-08-30T05:18:32.272Z,958.7
2022-08-30T05:19:32.260Z,958.71
2022-08-30T05:20:32.250Z,958.66
2022-08-30T05:21:32.238Z,958.69
2022-08-30T05:22:32.228Z,958.64
2022-08-30T05:23:32.214Z,958.66
2022-08-30T05:24:32.203Z,958.67
2022-08-30T05:25:32.192Z,958.68
2022-08-30T05:26:32.181Z,958.68
2022-08-30T05:27:32.167Z,958.69
2022-08-30T05:28:32.159Z,958.73
2022-08-30T05:29:32.146Z,958.74
2022-08-30T05:30:32.135Z,958.78
2022-08-30T05:31:32.272Z,958.74
2022-08-30T05:32:32.111Z,958.72
2022-08-30T05:33:32.100Z,958.73
2022-08-30T05:34:32.088Z,958.74
2022-08-30T05:35:32.076Z,958.74
2022-08-30T05:36:32.064Z,958.8
2022-08-30T05:37:32.054Z,958.77
2022-08-30T05:38:32.043Z,958.8
2022-08-30T05:39:33.988Z,958.73
2022-08-30T05:40:32.085Z,958.74
2022-08-30T05:41:32.009Z,958.76
2022-08-30T05:42:31.997Z,958.72
2022-08-30T05:43:31.987Z,958.69
2022-08-30T05:44:31.974Z,958.7
2022-08-30T05:45:31.965Z,958.65
2022-08-30T05:47:31.941Z,958.66
2022-08-30T05:48:31.929Z,958.68
2022-08-30T05:49:31.919Z,958.65
2022-08-30T05:50:31.906Z,958.68
2022-08-30T05:51:31.898Z,958.66
2022-08-30T05:52:31.885Z,958.68
2022-08-30T05:53:31.876Z,958.73
2022-08-30T05:54:31.865Z,958.7
2022-08-30T05:55:31.856Z,958.71
2022-08-30T05:56:31.841Z,958.73
2022-08-30T05:57:31.831Z,958.73
2022-08-30T05:58:31.818Z,958.69
2022-08-30T05:59:31.808Z,958.71
2022-08-30T06:00:31.796Z,958.7
2022-08-30T06:01:31.890Z,958.73
2022-08-30T06:02:31.786Z,958.69
2022-08-30T06:03:31.766Z,958.68
2022-08-30T06:04:31.753Z,958.69
2022-08-30T06:05:33.717Z,958.69
2022-08-30T06:06:31.732Z,958.71
2022-08-30T06:07:31.722Z,958.7
2022-08-30T06:08:31.710Z,958.72
2022-08-30T06:09:31.701Z,958.77
2022-08-30T06:10:31.689Z,958.74
2022-08-30T06:11:31.704Z,958.74
2022-08-30T06:12:31.666Z,958.76
2022-08-30T06:13:31.658Z,958.77
2022-08-30T06:14:31.646Z,958.73
2022-08-30T06:15:31.637Z,958.77
2022-08-30T06:16:31.679Z,958.74
2022-08-30T06:17:31.616Z,958.76
2022-08-30T06:18:31.608Z,958.74
2022-08-30T06:19:31.594Z,958.75
2022-08-30T06:20:31.584Z,958.74
2022-08-30T06:21:31.577Z,958.75
2022-08-30T06:22:31.562Z,958.74
2022-08-30T06:23:31.551Z,958.74
2022-08-30T06:24:53.980Z,958.77
2022-08-30T06:25:41.470Z,958.77
2022-08-30T06:27:31.511Z,958.79
2022-08-30T06:28:31.503Z,958.83
2022-08-30T06:29:31.490Z,958.8
2022-08-30T06:30:31.483Z,958.82
2022-08-30T06:31:31.556Z,958.82
2022-08-30T06:32:31.464Z,958.78
2022-08-30T06:33:31.450Z,958.77
2022-08-30T06:34:31.443Z,958.74
2022-08-30T06:35:35.271Z,958.75
2022-08-30T06:36:31.422Z,958.82
2022-08-30T06:37:31.411Z,958.81
2022-08-30T06:38:31.403Z,958.79
2022-08-30T06:39:31.392Z,958.82
2022-08-30T06:40:31.427Z,958.81
2022-08-30T06:41:31.373Z,958.78
2022-08-30T06:42:31.364Z,958.77
2022-08-30T06:43:31.353Z,958.72
2022-08-30T06:44:31.344Z,958.73
2022-08-30T06:45:31.334Z,958.76
2022-08-30T06:46:31.348Z,958.7
2022-08-30T06:47:31.319Z,958.72
2022-08-30T06:48:31.306Z,958.7
2022-08-30T06:49:31.295Z,958.69
2022-08-30T06:50:31.287Z,958.7
2022-08-30T06:51:31.276Z,958.69
2022-08-30T06:52:31.268Z,958.71
2022-08-30T06:53:31.259Z,958.67
2022-08-30T06:54:31.250Z,958.65
2022-08-30T06:55:31.239Z,958.68
2022-08-30T06:56:31.349Z,958.69
2022-08-30T06:57:31.222Z,958.7
2022-08-30T06:58:31.214Z,958.72
2022-08-30T06:59:31.206Z,958.73
2022-08-30T07:00:31.198Z,958.7
2022-08-30T07:01:31.227Z,958.68
2022-08-30T07:02:31.256Z,958.7
2022-08-30T07:03:31.171Z,958.74
2022-08-30T07:04:31.164Z,958.75
2022-08-30T07:05:31.155Z,958.74
2022-08-30T07:06:31.150Z,958.75
2022-08-30T07:07:31.138Z,958.73
2022-08-30T07:08:31.134Z,958.75
2022-08-30T07:10:31.118Z,958.79
2022-08-30T07:11:31.109Z,958.86
2022-08-30T07:12:31.103Z,958.86
2022-08-30T07:13:31.094Z,958.92
2022-08-30T07:14:31.090Z,958.9
2022-08-30T07:15:31.085Z,958.88
2022-08-30T07:16:31.077Z,958.94
2022-08-30T07:17:34.473Z,958.89
2022-08-30T07:18:31.064Z,958.76
2022-08-30T07:19:31.064Z,958.76
2022-08-30T07:20:40.180Z,958.8
2022-08-30T07:21:31.050Z,958.81
2022-08-30T07:22:31.044Z,958.81
2022-08-30T07:23:31.039Z,958.83
2022-08-30T07:24:31.033Z,958.82
2022-08-30T07:25:31.028Z,958.86
2022-08-30T07:26:31.022Z,958.85
2022-08-30T07:27:31.020Z,958.85
2022-08-30T07:28:31.015Z,958.84
2022-08-30T07:29:31.009Z,958.85
2022-08-30T07:30:31.004Z,958.86
2022-08-30T07:31:30.999Z,958.81
2022-08-30T07:32:30.992Z,958.78
2022-08-30T07:33:30.988Z,958.8
2022-08-30T07:34:30.982Z,958.81
2022-08-30T07:35:30.979Z,958.8
2022-08-30T07:36:30.972Z,958.84
2022-08-30T07:37:30.968Z,958.78
2022-08-30T07:38:30.963Z,958.77
2022-08-30T07:39:31.804Z,958.8
2022-08-30T07:40:31.000Z,958.77
2022-08-30T07:41:30.948Z,958.79
2022-08-30T07:42:30.941Z,958.83
2022-08-30T07:43:30.940Z,958.79
2022-08-30T07:44:30.930Z,958.84
2022-08-30T07:45:30.927Z,958.85
2022-08-30T07:46:30.942Z,958.83
2022-08-30T07:47:30.918Z,958.85
2022-08-30T07:48:30.909Z,958.85
2022-08-30T07:49:30.906Z,958.84
2022-08-30T07:50:30.898Z,958.88
2022-08-30T07:51:30.895Z,958.87
2022-08-30T07:52:30.990Z,958.89
2022-08-30T07:53:30.885Z,958.93
2022-08-30T07:54:30.879Z,958.91
2022-08-30T07:55:30.874Z,958.92
2022-08-30T07:56:30.867Z,958.91
2022-08-30T07:57:30.864Z,958.81
2022-08-30T07:58:30.861Z,958.82
2022-08-30T07:59:31.898Z,958.78
2022-08-30T08:00:30.847Z,958.8
2022-08-30T08:01:30.875Z,958.79
2022-08-30T08:02:30.874Z,958.83
2022-08-30T08:03:30.832Z,958.81
2022-08-30T08:04:30.825Z,958.81
2022-08-30T08:05:30.820Z,958.8
2022-08-30T08:06:34.800Z,958.76
2022-08-30T08:07:30.810Z,958.8
2022-08-30T08:08:30.806Z,958.76
2022-08-30T08:09:30.800Z,958.74
2022-08-30T08:10:30.796Z,958.77
2022-08-30T08:11:33.589Z,958.77
2022-08-30T08:12:30.786Z,958.76
2022-08-30T08:13:32.854Z,958.8
2022-08-30T08:14:30.778Z,958.78
2022-08-30T08:15:30.841Z,958.8
2022-08-30T08:16:30.767Z,958.81
2022-08-30T08:17:30.761Z,958.82
2022-08-30T08:18:30.759Z,958.84
2022-08-30T08:19:30.753Z,958.83
2022-08-30T08:20:30.748Z,958.84
2022-08-30T08:21:30.742Z,958.89
2022-08-30T08:22:30.740Z,958.88
2022-08-30T08:23:30.733Z,958.85
2022-08-30T08:24:30.730Z,958.86
2022-08-30T08:25:30.725Z,958.91
2022-08-30T08:26:30.724Z,958.88
2022-08-30T08:27:30.715Z,958.9
2022-08-30T08:28:30.713Z,958.91
2022-08-30T08:29:30.707Z,958.93
2022-08-30T08:30:30.705Z,958.92
2022-08-30T08:31:31.534Z,958.9
2022-08-30T08:32:30.696Z,958.88
2022-08-30T08:33:30.691Z,958.87
2022-08-30T08:34:30.688Z,958.84
2022-08-30T08:35:30.683Z,958.87
2022-08-30T08:36:30.681Z,958.84
2022-08-30T08:37:30.673Z,958.92
2022-08-30T08:38:30.672Z,958.92
2022-08-30T08:39:30.665Z,958.95
2022-08-30T08:40:30.702Z,958.97
2022-08-30T08:41:30.657Z,958.93
2022-08-30T08:42:30.656Z,958.96
2022-08-30T08:43:30.652Z,958.97
2022-08-30T08:44:34.373Z,958.95
2022-08-30T08:45:30.643Z,958.93
2022-08-30T08:46:30.668Z,958.97
2022-08-30T08:47:30.635Z,958.93
2022-08-30T08:48:35.877Z,958.93
2022-08-30T08:49:30.628Z,958.9
2022-08-30T08:50:30.626Z,958.89
2022-08-30T08:51:30.621Z,958.82
2022-08-30T08:52:30.617Z,958.83
2022-08-30T08:53:45.718Z,958.86
2022-08-30T08:54:30.610Z,958.86
2022-08-30T08:55:30.605Z,958.83
2022-08-30T08:56:30.602Z,958.84
2022-08-30T08:57:30.600Z,958.83
2022-08-30T08:58:30.594Z,958.88
2022-08-30T08:59:30.590Z,958.89
2022-08-30T09:00:30.587Z,958.89
2022-08-30T09:01:30.629Z,958.87
2022-08-30T09:02:30.580Z,958.85
2022-08-30T09:03:30.597Z,958.87
2022-08-30T09:04:30.574Z,958.84
2022-08-30T09:05:30.571Z,958.82
2022-08-30T09:06:30.565Z,958.8
2022-08-30T09:07:30.565Z,958.77
2022-08-30T09:08:30.559Z,958.8
2022-08-30T09:09:30.558Z,958.82
2022-08-30T09:10:47.399Z,958.83
2022-08-30T09:11:30.551Z,958.8
2022-08-30T09:12:30.547Z,958.8
2022-08-30T09:13:30.544Z,958.81
2022-08-30T09:14:30.548Z,958.81
2022-08-30T09:15:30.553Z,958.81
2022-08-30T09:16:30.546Z,958.86
2022-08-30T09:17:30.531Z,958.85
2022-08-30T09:18:30.525Z,958.84
2022-08-30T09:19:30.525Z,958.84
2022-08-30T09:20:30.521Z,958.82
2022-08-30T09:21:30.518Z,958.84
2022-08-30T09:22:30.513Z,958.84
2022-08-30T09:23:30.512Z,958.81
2022-08-30T09:24:30.508Z,958.82
2022-08-30T09:25:30.504Z,958.83
2022-08-30T09:26:30.501Z,958.81
2022-08-30T09:27:30.504Z,958.9
2022-08-30T09:28:30.493Z,958.85
2022-08-30T09:29:30.492Z,958.85
2022-08-30T09:30:30.488Z,958.86
2022-08-30T09:31:30.522Z,958.83
2022-08-30T09:32:30.483Z,958.82
2022-08-30T09:33:30.478Z,958.83
2022-08-30T09:34:30.476Z,958.81
2022-08-30T09:35:30.473Z,958.84
2022-08-30T09:36:30.468Z,958.83
2022-08-30T09:37:30.468Z,958.83
2022-08-30T09:38:30.463Z,958.82
2022-08-30T09:39:30.462Z,958.81
2022-08-30T09:40:30.526Z,958.81
2022-08-30T09:41:30.456Z,958.79
2022-08-30T09:42:30.452Z,958.82
2022-08-30T09:43:30.451Z,958.78
2022-08-30T09:44:30.460Z,958.79
2022-08-30T09:45:30.448Z,958.76
2022-08-30T09:46:30.526Z,958.73
2022-08-30T09:47:31.374Z,958.72
2022-08-30T09:48:30.444Z,958.7
2022-08-30T09:49:30.433Z,958.72
2022-08-30T09:50:30.432Z,958.69
2022-08-30T09:51:30.428Z,958.68
2022-08-30T09:52:30.427Z,958.69
2022-08-30T09:53:30.423Z,958.65
2022-08-30T09:54:31.089Z,958.69
2022-08-30T09:55:30.418Z,958.65
2022-08-30T09:56:30.417Z,958.65
2022-08-30T09:57:33.980Z,958.67
2022-08-30T09:58:30.411Z,958.69
2022-08-30T09:59:30.407Z,958.64
2022-08-30T10:00:30.406Z,958.62
2022-08-30T10:01:30.420Z,958.59
2022-08-30T10:02:30.401Z,958.59
2022-08-30T10:03:36.417Z,958.6
2022-08-30T10:04:31.109Z,958.6
2022-08-30T10:05:30.392Z,958.57
2022-08-30T10:06:30.392Z,958.61
2022-08-30T10:07:30.387Z,958.59
2022-08-30T10:08:30.387Z,958.62
2022-08-30T10:09:30.386Z,958.64
2022-08-30T10:10:30.382Z,958.62
2022-08-30T10:11:30.379Z,958.63
2022-08-30T10:12:30.377Z,958.65
2022-08-30T10:13:30.373Z,958.61
2022-08-30T10:14:30.375Z,958.66
2022-08-30T10:15:30.369Z,958.66
2022-08-30T10:16:30.369Z,958.64
2022-08-30T10:17:30.364Z,958.67
2022-08-30T10:18:30.363Z,958.65
2022-08-30T10:19:30.357Z,958.61
2022-08-30T10:20:30.361Z,958.59
2022-08-30T10:21:30.354Z,958.64
2022-08-30T10:22:30.357Z,958.65
2022-08-30T10:23:30.349Z,958.66
2022-08-30T10:24:33.433Z,958.68
2022-08-30T10:25:30.346Z,958.65
2022-08-30T10:26:30.345Z,958.61
2022-08-30T10:27:30.340Z,958.57
2022-08-30T10:28:30.339Z,958.56
2022-08-30T10:29:30.336Z,958.58
2022-08-30T10:30:30.334Z,958.62
2022-08-30T10:31:30.331Z,958.59
2022-08-30T10:32:30.329Z,958.57
2022-08-30T10:33:31.746Z,958.58
2022-08-30T10:34:30.324Z,958.53
2022-08-30T10:35:38.262Z,958.51
2022-08-30T10:36:30.321Z,958.52
2022-08-30T10:37:30.316Z,958.49
2022-08-30T10:38:30.316Z,958.49
2022-08-30T10:39:30.852Z,958.48
2022-08-30T10:40:30.370Z,958.48
2022-08-30T10:41:30.308Z,958.48
2022-08-30T10:42:30.304Z,958.52
2022-08-30T10:43:30.307Z,958.48
2022-08-30T10:44:30.300Z,958.49
2022-08-30T10:45:30.300Z,958.51
2022-08-30T10:46:30.296Z,958.51
2022-08-30T10:47:30.296Z,958.49
2022-08-30T10:48:30.290Z,958.48
2022-08-30T10:49:30.289Z,958.46
2022-08-30T10:50:30.287Z,958.46
2022-08-30T10:51:30.286Z,958.48
2022-08-30T10:52:30.283Z,958.47
2022-08-30T10:53:30.283Z,958.46
2022-08-30T10:54:30.280Z,958.49
2022-08-30T10:55:30.278Z,958.47
2022-08-30T10:56:30.273Z,958.48
2022-08-30T10:57:30.272Z,958.49
2022-08-30T10:58:30.269Z,958.46
2022-08-30T10:59:30.270Z,958.49
2022-08-30T11:00:30.264Z,958.5
2022-08-30T11:01:30.331Z,958.45
2022-08-30T11:02:30.264Z,958.43
2022-08-30T11:03:30.260Z,958.43
2022-08-30T11:04:30.258Z,958.44
2022-08-30T11:05:30.257Z,958.41
2022-08-30T11:06:30.255Z,958.43
2022-08-30T11:07:30.252Z,958.45
2022-08-30T11:08:30.250Z,958.48
2022-08-30T11:09:30.250Z,958.51
2022-08-30T11:10:30.246Z,958.5
2022-08-30T11:11:30.246Z,958.53
2022-08-30T11:12:30.243Z,958.48
2022-08-30T11:13:30.243Z,958.47
2022-08-30T11:14:30.238Z,958.48
2022-08-30T11:15:30.238Z,958.44
2022-08-30T11:16:30.237Z,958.47
2022-08-30T11:17:30.237Z,958.49
2022-08-30T11:18:30.231Z,958.45
2022-08-30T11:19:32.096Z,958.51
2022-08-30T11:20:30.228Z,958.51
2022-08-30T11:21:30.228Z,958.49
2022-08-30T11:22:30.224Z,958.51
2022-08-30T11:23:32.583Z,958.51
2022-08-30T11:24:30.221Z,958.48
2022-08-30T11:25:30.220Z,958.5
2022-08-30T11:26:30.218Z,958.49
2022-08-30T11:27:30.218Z,958.55
2022-08-30T11:28:30.215Z,958.52
2022-08-30T11:29:30.213Z,958.5
2022-08-30T11:30:30.213Z,958.56
2022-08-30T11:31:30.211Z,958.5
2022-08-30T11:32:30.211Z,958.45
2022-08-30T11:33:30.205Z,958.45
2022-08-30T11:34:30.207Z,958.41
2022-08-30T11:35:30.203Z,958.39
2022-08-30T11:36:37.199Z,958.39
2022-08-30T11:37:30.200Z,958.4
2022-08-30T11:38:30.199Z,958.4
2022-08-30T11:39:30.197Z,958.38
2022-08-30T11:40:30.196Z,958.36
2022-08-30T11:41:30.194Z,958.38
2022-08-30T11:42:30.235Z,958.38
2022-08-30T11:43:30.204Z,958.39
2022-08-30T11:44:30.201Z,958.39
2022-08-30T11:45:30.220Z,958.36
2022-08-30T11:46:30.216Z,958.37
2022-08-30T11:47:30.184Z,958.38
2022-08-30T11:48:30.185Z,958.42
2022-08-30T11:49:30.183Z,958.33
2022-08-30T11:50:30.186Z,958.34
2022-08-30T11:51:30.179Z,958.35
2022-08-30T11:52:30.180Z,958.29
2022-08-30T11:53:30.178Z,958.28
2022-08-30T11:54:30.177Z,958.29
2022-08-30T11:55:30.173Z,958.3
2022-08-30T11:56:30.173Z,958.29
2022-08-30T11:57:30.171Z,958.33
2022-08-30T11:58:30.172Z,958.26
2022-08-30T11:59:30.168Z,958.3
2022-08-30T12:00:30.168Z,958.26
2022-08-30T12:01:42.431Z,958.29
2022-08-30T12:02:30.355Z,958.27
2022-08-30T12:03:30.326Z,958.24
2022-08-30T12:04:30.164Z,958.27
2022-08-30T12:05:30.158Z,958.26
2022-08-30T12:06:30.159Z,958.26
2022-08-30T12:07:30.155Z,958.23
2022-08-30T12:08:30.157Z,958.23
2022-08-30T12:09:30.152Z,958.24
2022-08-30T12:10:30.152Z,958.23
2022-08-30T12:11:30.152Z,958.25
2022-08-30T12:12:30.150Z,958.19
2022-08-30T12:13:30.146Z,958.22
2022-08-30T12:14:30.146Z,958.25
2022-08-30T12:15:30.142Z,958.21
2022-08-30T12:16:30.179Z,958.19
2022-08-30T12:17:30.137Z,958.2
2022-08-30T12:18:30.137Z,958.26
2022-08-30T12:19:30.134Z,958.19
2022-08-30T12:20:30.133Z,958.18
2022-08-30T12:21:31.288Z,958.17
2022-08-30T12:22:30.128Z,958.13
2022-08-30T12:23:30.141Z,958.14
2022-08-30T12:24:30.124Z,958.14
2022-08-30T12:25:30.128Z,958.12
2022-08-30T12:26:30.121Z,958.14
2022-08-30T12:27:32.469Z,958.08
2022-08-30T12:28:30.116Z,958.08
2022-08-30T12:29:30.116Z,958.06
2022-08-30T12:30:30.114Z,958.09
2022-08-30T12:31:30.144Z,958.09
2022-08-30T12:32:30.116Z,958.07
2022-08-30T12:33:30.793Z,958.1
2022-08-30T12:34:30.107Z,958.07
2022-08-30T12:35:30.105Z,958.05
2022-08-30T12:36:30.102Z,958.06
2022-08-30T12:37:30.102Z,958.04
2022-08-30T12:38:30.098Z,958.1
2022-08-30T12:39:30.097Z,958.06
2022-08-30T12:40:30.137Z,958.08
2022-08-30T12:41:30.097Z,958.08
2022-08-30T12:42:30.090Z,958.07
2022-08-30T12:43:33.142Z,958.05
2022-08-30T12:44:30.087Z,958.06
2022-08-30T12:45:30.142Z,958.08
2022-08-30T12:46:30.087Z,958.07
2022-08-30T12:47:30.083Z,958.06
2022-08-30T12:48:30.080Z,958.07
2022-08-30T12:49:30.083Z,958.06
2022-08-30T12:50:30.102Z,958.07